Time;durP1;ratioP1;P1;durP2;ratioP2;P2;SDS_P1;SDS_P2;PMS_P1;PMS_P2;Temp;Humidity;BMP_temperature;BMP_pressure;BME280_temperature;BME280_humidity;BME280_pressure;Samples;Min_cycle;Max_cycle;Signal;HPM_P1;HPM_P2
2022/03/26 00:00:17;;;;;;;44.28;26.38;;;12.90;36.60;;;;;;5013935;28;20057;-52
2022/03/26 00:02:44;;;;;;;40.95;26.15;;;13.00;36.80;;;;;;5014223;28;20454;-54
2022/03/26 00:05:10;;;;;;;45.33;26.70;;;12.90;36.80;;;;;;5031205;28;20473;-53
2022/03/26 00:07:36;;;;;;;43.95;26.33;;;12.90;36.70;;;;;;5014259;28;20025;-53
2022/03/26 00:10:05;;;;;;;47.42;26.90;;;13.00;36.70;;;;;;5031946;28;20021;-55
2022/03/26 00:12:31;;;;;;;44.42;26.30;;;12.90;36.60;;;;;;5014020;28;20426;-56
2022/03/26 00:15:16;;;;;;;41.75;25.02;;;12.90;36.60;;;;;;5014251;28;20017;-55
2022/03/26 00:17:42;;;;;;;43.30;24.98;;;12.80;36.80;;;;;;5013983;28;20040;-51
2022/03/26 00:20:09;;;;;;;40.35;23.80;;;12.80;36.70;;;;;;5013594;28;20017;-54
2022/03/26 00:22:35;;;;;;;41.08;25.27;;;12.80;36.70;;;;;;5031673;28;20013;-52
2022/03/26 00:25:01;;;;;;;43.10;25.73;;;12.80;36.70;;;;;;5032106;28;20343;-55
2022/03/26 00:27:26;;;;;;;41.55;26.25;;;12.80;36.70;;;;;;5013534;28;20032;-55
2022/03/26 00:29:52;;;;;;;39.88;26.00;;;12.80;36.70;;;;;;5031517;28;20017;-53
2022/03/26 00:32:18;;;;;;;46.78;26.30;;;12.80;36.70;;;;;;5013612;28;20080;-53
2022/03/26 00:34:44;;;;;;;45.80;25.65;;;12.80;36.80;;;;;;5013986;28;20033;-53
2022/03/26 00:37:09;;;;;;;40.30;26.05;;;12.80;36.70;;;;;;5030781;28;20171;-56
2022/03/26 00:39:36;;;;;;;45.30;27.88;;;12.70;36.50;;;;;;5031530;28;20021;-54
2022/03/26 00:42:03;;;;;;;42.97;27.42;;;12.80;36.40;;;;;;5013791;28;20044;-53
2022/03/26 00:44:28;;;;;;;44.63;27.60;;;12.70;36.20;;;;;;5030939;28;20014;-53
2022/03/26 00:46:54;;;;;;;49.75;27.73;;;12.80;36.20;;;;;;5013619;28;20422;-55
2022/03/26 00:49:20;;;;;;;44.15;26.65;;;12.80;36.20;;;;;;5013365;28;20032;-55
2022/03/26 00:51:46;;;;;;;49.47;27.15;;;12.70;36.30;;;;;;5013733;28;20108;-53
2022/03/26 00:54:12;;;;;;;41.13;27.40;;;12.70;36.50;;;;;;5031332;28;20060;-54
2022/03/26 00:56:39;;;;;;;48.40;27.58;;;12.70;36.60;;;;;;5031353;28;20025;-55
2022/03/26 00:59:06;;;;;;;44.55;27.60;;;12.70;36.70;;;;;;5013785;28;20022;-57
2022/03/26 01:01:32;;;;;;;47.97;28.50;;;12.70;36.60;;;;;;5031595;28;20091;-54
2022/03/26 01:03:59;;;;;;;47.05;27.77;;;12.70;36.60;;;;;;5031254;28;20029;-55
2022/03/26 01:06:26;;;;;;;45.42;27.38;;;12.70;37.40;;;;;;5029283;28;20035;-54
2022/03/26 01:08:52;;;;;;;46.63;26.90;;;12.60;37.00;;;;;;4997044;28;20089;-54
2022/03/26 01:11:17;;;;;;;45.17;26.25;;;12.60;37.20;;;;;;5030077;28;20374;-53
2022/03/26 01:13:46;;;;;;;40.60;25.13;;;12.60;37.40;;;;;;5013063;28;20049;-54
2022/03/26 01:16:12;;;;;;;48.45;27.40;;;12.50;37.60;;;;;;5013668;28;20029;-56
2022/03/26 01:18:39;;;;;;;44.78;27.33;;;12.40;37.90;;;;;;5034445;28;20030;-53
2022/03/26 01:21:05;;;;;;;41.08;26.67;;;12.40;38.10;;;;;;5034514;28;20033;-55
2022/03/26 01:23:31;;;;;;;39.78;25.63;;;12.30;38.30;;;;;;5016299;28;20095;-56
2022/03/26 01:25:58;;;;;;;40.00;24.75;;;12.30;38.60;;;;;;5034171;28;20109;-49
2022/03/26 01:28:24;;;;;;;41.55;24.80;;;12.20;38.70;;;;;;5033635;28;20025;-50
2022/03/26 01:30:50;;;;;;;40.22;25.30;;;12.10;38.80;;;;;;5016556;28;20101;-56
2022/03/26 01:33:16;;;;;;;42.75;25.48;;;12.00;38.90;;;;;;5033886;28;20025;-56
2022/03/26 01:35:41;;;;;;;39.92;24.05;;;11.90;39.00;;;;;;5016434;28;20021;-54
2022/03/26 01:38:07;;;;;;;39.58;24.23;;;11.90;39.20;;;;;;5015676;28;20033;-56
2022/03/26 01:40:34;;;;;;;46.47;25.45;;;11.80;39.30;;;;;;5016487;28;20025;-54
2022/03/26 01:43:01;;;;;;;36.67;24.15;;;11.80;39.30;;;;;;5016497;28;20029;-55
2022/03/26 01:45:28;;;;;;;38.42;24.70;;;11.80;39.30;;;;;;5015944;28;20273;-55
2022/03/26 01:47:54;;;;;;;40.35;25.58;;;11.80;39.40;;;;;;5025802;28;20021;-56
2022/03/26 01:50:20;;;;;;;43.90;25.13;;;11.70;39.30;;;;;;5033749;28;20041;-55
2022/03/26 01:52:46;;;;;;;40.95;24.67;;;11.70;39.20;;;;;;5034396;28;20066;-56
2022/03/26 01:55:11;;;;;;;41.58;26.70;;;11.80;39.10;;;;;;5015684;28;20024;-55
2022/03/26 01:57:38;;;;;;;41.78;24.75;;;11.80;39.10;;;;;;5033668;28;20025;-54
2022/03/26 02:00:07;;;;;;;43.10;26.77;;;11.80;39.00;;;;;;5016000;28;20536;-55
2022/03/26 02:02:34;;;;;;;44.25;26.70;;;11.90;38.90;;;;;;5033777;28;20018;-56
2022/03/26 02:04:59;;;;;;;42.60;24.80;;;11.90;38.90;;;;;;5033752;28;20032;-57
2022/03/26 02:07:25;;;;;;;46.05;25.98;;;11.90;38.90;;;;;;5032688;28;20033;-56
2022/03/26 02:09:51;;;;;;;40.80;25.60;;;11.90;39.00;;;;;;5033483;28;20109;-53
2022/03/26 02:12:25;;;;;;;47.13;25.50;;;11.90;38.80;;;;;;5014943;28;20052;-53
2022/03/26 02:14:52;;;;;;;38.55;25.27;;;11.80;38.90;;;;;;5015753;28;20112;-55
2022/03/26 02:17:18;;;;;;;40.22;25.85;;;11.80;38.90;;;;;;5015092;28;20038;-55
2022/03/26 02:19:57;;;;;;;47.63;27.25;;;11.80;38.90;;;;;;5033503;28;20112;-56
2022/03/26 02:22:25;;;;;;;44.15;28.20;;;11.80;39.00;;;;;;5032875;28;20017;-56
2022/03/26 02:24:52;;;;;;;45.08;27.23;;;11.80;38.90;;;;;;5033468;28;20021;-54
2022/03/26 02:27:18;;;;;;;45.45;26.30;;;11.80;38.90;;;;;;5015060;28;20112;-54
2022/03/26 02:29:43;;;;;;;42.83;26.73;;;11.80;39.00;;;;;;5033306;28;20522;-54
2022/03/26 02:32:09;;;;;;;48.50;26.75;;;11.70;39.00;;;;;;5015056;28;20021;-53
2022/03/26 02:34:35;;;;;;;44.53;25.95;;;11.70;39.10;;;;;;5015304;28;20493;-52
2022/03/26 02:37:01;;;;;;;48.47;27.13;;;11.70;39.20;;;;;;5032955;28;20029;-53
2022/03/26 02:39:27;;;;;;;46.97;26.55;;;11.60;39.30;;;;;;5032659;28;20423;-55
2022/03/26 02:41:53;;;;;;;42.72;26.83;;;11.60;39.40;;;;;;5033197;28;20107;-52
2022/03/26 02:44:19;;;;;;;44.28;26.75;;;11.60;39.50;;;;;;5032631;28;20033;-51
2022/03/26 02:46:46;;;;;;;47.35;26.77;;;11.50;39.70;;;;;;5015320;28;20052;-55
2022/03/26 02:49:31;;;;;;;53.72;29.05;;;11.50;39.80;;;;;;5032638;28;20427;-52
2022/03/26 02:51:56;;;;;;;51.55;29.17;;;11.50;39.90;;;;;;5015284;28;20113;-55
2022/03/26 02:54:22;;;;;;;45.85;27.95;;;11.30;39.90;;;;;;5014622;28;20514;-51
2022/03/26 02:56:49;;;;;;;53.00;29.38;;;11.30;39.90;;;;;;5032808;28;20496;-55
2022/03/26 02:59:16;;;;;;;48.38;28.50;;;11.30;39.90;;;;;;5014679;28;20094;-54
2022/03/26 03:01:41;;;;;;;46.33;27.20;;;11.20;39.90;;;;;;5033061;28;20025;-53
2022/03/26 03:04:08;;;;;;;44.30;27.30;;;11.20;40.00;;;;;;5032384;28;20423;-62
2022/03/26 03:06:34;;;;;;;48.40;28.50;;;11.20;40.00;;;;;;5014662;28;20030;-52
2022/03/26 03:09:03;;;;;;;44.45;25.98;;;11.20;40.00;;;;;;5014963;28;20025;-53
2022/03/26 03:11:29;;;;;;;43.28;26.70;;;11.20;40.00;;;;;;5031743;28;20013;-55
2022/03/26 03:13:55;;;;;;;43.80;28.50;;;11.20;39.90;;;;;;5032618;28;20064;-54
2022/03/26 03:16:21;;;;;;;46.30;27.90;;;11.20;39.80;;;;;;5031943;28;20060;-54
2022/03/26 03:18:46;;;;;;;47.22;28.08;;;11.20;39.70;;;;;;5032480;28;20021;-54
2022/03/26 03:21:12;;;;;;;46.40;27.88;;;11.30;39.50;;;;;;5032001;28;20025;-56
2022/03/26 03:23:37;;;;;;;47.60;27.58;;;11.30;39.40;;;;;;5032912;28;20031;-53
2022/03/26 03:26:03;;;;;;;46.30;27.63;;;11.30;39.40;;;;;;5032187;28;20048;-51
2022/03/26 03:28:29;;;;;;;46.47;26.23;;;11.30;39.10;;;;;;5031890;28;20075;-53
2022/03/26 03:30:55;;;;;;;48.45;29.08;;;11.30;39.10;;;;;;5031966;28;20029;-50
2022/03/26 03:33:21;;;;;;;45.17;27.13;;;11.30;38.90;;;;;;5013956;28;20028;-53
2022/03/26 03:35:46;;;;;;;51.10;29.20;;;11.30;38.90;;;;;;5031732;28;20155;-50
2022/03/26 03:38:12;;;;;;;47.83;28.20;;;11.30;38.70;;;;;;5013687;28;20029;-52
2022/03/26 03:40:38;;;;;;;46.33;28.13;;;11.30;38.70;;;;;;5013920;28;20021;-51
2022/03/26 03:43:03;;;;;;;52.72;29.23;;;11.30;38.60;;;;;;5032388;28;20022;-58
2022/03/26 03:45:29;;;;;;;45.40;27.95;;;11.30;38.70;;;;;;5013968;28;20021;-54
2022/03/26 03:47:55;;;;;;;50.15;28.27;;;11.30;38.70;;;;;;5014065;28;20033;-56
2022/03/26 03:50:20;;;;;;;50.58;28.45;;;11.30;38.70;;;;;;5031285;28;20021;-54
2022/03/26 03:52:46;;;;;;;51.15;28.48;;;11.30;38.80;;;;;;5031729;28;20404;-55
2022/03/26 03:55:12;;;;;;;46.47;29.67;;;11.30;38.90;;;;;;5013528;28;20018;-57
2022/03/26 03:57:42;;;;;;;51.20;28.90;;;11.30;39.00;;;;;;5014036;28;20022;-54
2022/03/26 04:00:10;;;;;;;49.20;27.50;;;11.30;39.10;;;;;;5031796;28;20028;-55
2022/03/26 04:02:36;;;;;;;43.75;27.88;;;11.20;39.50;;;;;;5013675;28;20018;-54
2022/03/26 04:05:01;;;;;;;44.75;27.67;;;11.20;39.70;;;;;;5014084;28;20024;-57
2022/03/26 04:07:27;;;;;;;41.65;26.85;;;11.10;40.00;;;;;;5014215;28;20070;-55
2022/03/26 04:09:53;;;;;;;46.55;27.73;;;11.10;40.20;;;;;;5015028;28;20032;-56
2022/03/26 04:12:18;;;;;;;53.28;27.67;;;11.00;40.50;;;;;;5032478;28;20045;-53
2022/03/26 04:14:44;;;;;;;50.72;27.10;;;10.90;40.70;;;;;;5033163;28;20032;-56
2022/03/26 04:17:12;;;;;;;46.80;28.35;;;10.90;40.70;;;;;;5031474;28;20052;-55
2022/03/26 04:19:38;;;;;;;50.03;28.67;;;10.90;40.80;;;;;;5014102;28;20462;-55
2022/03/26 04:22:05;;;;;;;46.47;27.20;;;10.80;40.80;;;;;;5013976;28;20116;-54
2022/03/26 04:24:31;;;;;;;48.03;27.08;;;10.80;41.00;;;;;;5031612;28;20101;-55
2022/03/26 04:26:57;;;;;;;49.47;27.10;;;10.70;41.10;;;;;;5031683;28;20029;-54
2022/03/26 04:29:22;;;;;;;43.90;26.80;;;10.70;41.50;;;;;;5013060;28;20409;-52
2022/03/26 04:31:48;;;;;;;52.65;28.10;;;10.60;41.50;;;;;;5013582;28;20018;-52
2022/03/26 04:34:14;;;;;;;50.88;28.65;;;10.50;41.60;;;;;;5031012;28;20057;-57
2022/03/26 04:36:40;;;;;;;45.25;27.27;;;10.50;41.80;;;;;;5014107;28;20033;-50
2022/03/26 04:39:05;;;;;;;44.55;27.63;;;10.40;41.80;;;;;;5031697;28;20026;-53
2022/03/26 04:41:31;;;;;;;51.10;29.15;;;10.40;41.70;;;;;;5014349;28;20076;-56
2022/03/26 04:43:57;;;;;;;49.45;29.08;;;10.40;41.50;;;;;;5015445;28;20417;-58
2022/03/26 04:46:22;;;;;;;47.28;28.70;;;10.50;41.40;;;;;;5014722;28;20086;-57
2022/03/26 04:48:48;;;;;;;47.92;27.98;;;10.50;41.10;;;;;;5015241;28;20426;-57
2022/03/26 04:51:14;;;;;;;49.78;28.02;;;10.60;41.00;;;;;;5033524;28;20025;-57
2022/03/26 04:53:39;;;;;;;46.97;27.63;;;10.60;40.80;;;;;;5036783;28;20036;-57
2022/03/26 04:56:05;;;;;;;47.40;28.17;;;10.60;40.60;;;;;;5017745;28;20049;-57
2022/03/26 04:58:31;;;;;;;49.33;28.70;;;10.70;40.60;;;;;;5035415;28;20032;-53
2022/03/26 05:00:57;;;;;;;45.92;27.90;;;10.70;40.50;;;;;;5036286;28;20029;-55
2022/03/26 05:03:24;;;;;;;50.97;28.02;;;10.80;40.40;;;;;;5017227;28;20021;-55
2022/03/26 05:05:49;;;;;;;47.88;28.05;;;10.70;40.40;;;;;;5036220;28;20032;-58
2022/03/26 05:08:16;;;;;;;52.08;29.85;;;10.80;40.40;;;;;;5017527;28;20021;-57
2022/03/26 05:10:41;;;;;;;49.88;29.98;;;10.80;40.20;;;;;;5002389;28;20032;-54
2022/03/26 05:13:07;;;;;;;54.95;28.40;;;10.80;40.20;;;;;;5036595;28;20124;-57
2022/03/26 05:15:33;;;;;;;49.33;29.15;;;10.80;40.20;;;;;;5035634;28;20033;-56
2022/03/26 05:17:58;;;;;;;47.63;28.30;;;10.80;40.10;;;;;;5035261;28;20133;-51
2022/03/26 05:20:25;;;;;;;53.35;28.98;;;10.90;40.10;;;;;;5033621;28;20033;-55
2022/03/26 05:22:52;;;;;;;49.38;29.00;;;10.90;40.10;;;;;;5034333;28;20033;-52
2022/03/26 05:25:19;;;;;;;52.05;29.25;;;11.00;40.10;;;;;;5034718;28;20032;-52
2022/03/26 05:27:50;;;;;;;51.08;28.27;;;11.00;40.00;;;;;;5016946;28;20029;-54
2022/03/26 05:30:16;;;;;;;49.45;28.42;;;11.10;40.00;;;;;;5034479;28;20022;-56
2022/03/26 05:32:43;;;;;;;48.03;28.05;;;11.10;40.00;;;;;;5017012;28;20440;-54
2022/03/26 05:35:13;;;;;;;53.15;29.65;;;11.10;40.00;;;;;;5034548;28;20515;-51
2022/03/26 05:37:44;;;;;;;47.92;28.55;;;11.20;40.10;;;;;;5034342;28;20044;-54
2022/03/26 05:40:16;;;;;;;47.17;28.67;;;11.20;40.00;;;;;;5034738;28;20034;-55
2022/03/26 05:42:43;;;;;;;49.70;28.77;;;11.20;40.00;;;;;;5034718;28;20021;-53
2022/03/26 05:45:09;;;;;;;52.33;29.65;;;11.30;39.90;;;;;;5034450;28;20029;-52
2022/03/26 05:47:37;;;;;;;48.33;28.20;;;11.40;39.90;;;;;;5034371;28;20112;-52
2022/03/26 05:50:05;;;;;;;44.38;28.00;;;11.50;39.80;;;;;;5034561;28;20026;-50
2022/03/26 05:52:31;;;;;;;53.45;31.58;;;11.50;39.80;;;;;;5033998;28;20041;-54
2022/03/26 05:54:56;;;;;;;48.13;28.20;;;11.60;39.70;;;;;;5035077;28;20026;-54
2022/03/26 05:57:22;;;;;;;54.35;29.15;;;11.70;39.70;;;;;;5016669;28;20033;-54
2022/03/26 05:59:48;;;;;;;49.20;29.40;;;11.70;39.40;;;;;;5035193;28;20470;-55
2022/03/26 06:02:14;;;;;;;44.92;27.58;;;11.70;39.30;;;;;;5035234;28;20029;-57
2022/03/26 06:04:41;;;;;;;47.22;27.45;;;11.90;39.30;;;;;;5034148;28;20386;-57
2022/03/26 06:07:07;;;;;;;50.25;29.05;;;11.90;39.00;;;;;;5035267;28;20033;-55
2022/03/26 06:09:34;;;;;;;45.97;27.40;;;12.00;38.90;;;;;;5034104;28;20619;-54
2022/03/26 06:11:59;;;;;;;48.83;28.42;;;12.00;38.70;;;;;;5033937;28;20052;-52
2022/03/26 06:14:25;;;;;;;43.85;28.70;;;12.10;38.60;;;;;;5033600;28;20108;-54
2022/03/26 06:16:52;;;;;;;43.67;28.45;;;12.20;38.40;;;;;;5033637;28;20084;-54
2022/03/26 06:19:17;;;;;;;47.55;29.58;;;12.20;38.30;;;;;;5033662;28;20379;-55
2022/03/26 06:21:44;;;;;;;52.20;29.20;;;12.20;38.40;;;;;;5015356;28;20458;-53
2022/03/26 06:24:09;;;;;;;45.92;27.20;;;12.20;38.40;;;;;;5033329;28;20026;-54
2022/03/26 06:26:37;;;;;;;47.40;28.38;;;12.30;38.30;;;;;;5014657;28;20030;-58
2022/03/26 06:29:04;;;;;;;49.72;29.45;;;12.30;38.10;;;;;;5033252;28;20032;-52
2022/03/26 06:31:29;;;;;;;48.42;29.73;;;12.30;38.20;;;;;;5032065;28;20041;-53
2022/03/26 06:33:55;;;;;;;47.45;30.00;;;12.30;38.30;;;;;;5015436;28;20025;-59
2022/03/26 06:36:22;;;;;;;49.03;30.75;;;12.40;38.20;;;;;;5033542;28;20389;-53
2022/03/26 06:38:48;;;;;;;50.15;29.88;;;12.50;38.10;;;;;;5034137;28;20099;-51
2022/03/26 06:41:15;;;;;;;49.67;29.83;;;12.60;37.90;;;;;;5033404;28;20120;-58
2022/03/26 06:43:42;;;;;;;57.10;29.95;;;12.60;37.70;;;;;;5032684;28;20068;-55
2022/03/26 06:46:08;;;;;;;50.17;30.45;;;12.70;37.80;;;;;;5033156;28;20108;-58
2022/03/26 06:48:35;;;;;;;52.08;31.95;;;12.70;37.70;;;;;;4998048;28;20021;-54
2022/03/26 06:51:02;;;;;;;53.33;32.17;;;12.70;37.60;;;;;;5033066;28;20139;-55
2022/03/26 06:53:28;;;;;;;51.00;31.25;;;12.80;37.60;;;;;;5032480;28;20022;-56
2022/03/26 06:55:55;;;;;;;49.95;31.23;;;12.90;37.50;;;;;;5032419;28;20065;-56
2022/03/26 06:58:21;;;;;;;53.42;31.90;;;13.00;37.30;;;;;;5014377;28;20068;-55
2022/03/26 07:00:46;;;;;;;55.28;31.77;;;13.10;37.10;;;;;;5014941;28;20026;-56
2022/03/26 07:03:12;;;;;;;51.38;31.00;;;13.30;37.00;;;;;;5014974;28;20029;-52
2022/03/26 07:05:38;;;;;;;52.88;31.20;;;13.40;36.70;;;;;;5031842;28;20379;-56
2022/03/26 07:08:04;;;;;;;48.70;31.13;;;13.60;36.50;;;;;;5032579;28;20029;-55
2022/03/26 07:10:30;;;;;;;52.13;31.55;;;13.70;36.20;;;;;;5031918;28;20032;-55
2022/03/26 07:12:56;;;;;;;48.65;31.58;;;13.80;36.00;;;;;;5032264;28;20053;-52
2022/03/26 07:15:23;;;;;;;51.83;32.55;;;14.00;35.90;;;;;;5013636;28;20025;-55
2022/03/26 07:17:49;;;;;;;53.50;31.45;;;14.10;35.70;;;;;;5014945;28;20029;-58
2022/03/26 07:20:15;;;;;;;50.78;32.17;;;14.20;35.50;;;;;;5013897;28;20037;-61
2022/03/26 07:22:44;;;;;;;51.45;31.55;;;14.30;35.30;;;;;;5014388;28;20022;-56
2022/03/26 07:25:10;;;;;;;49.70;32.17;;;14.50;35.20;;;;;;5014472;28;20029;-57
2022/03/26 07:27:36;;;;;;;51.25;34.45;;;15.00;35.40;;;;;;5013732;28;20029;-58
2022/03/26 07:30:04;;;;;;;50.38;32.70;;;17.90;34.70;;;;;;5032043;28;20097;-59
2022/03/26 07:32:30;;;;;;;49.00;32.00;;;21.30;30.30;;;;;;5031634;28;20025;-54
2022/03/26 07:37:40;;;;;;;46.70;33.83;;;27.00;25.40;;;;;;5032163;28;20056;-56
2022/03/26 07:40:07;;;;;;;47.80;33.90;;;29.30;23.70;;;;;;5031949;28;20033;-54
2022/03/26 07:42:33;;;;;;;44.53;33.42;;;30.80;22.90;;;;;;5031464;28;20109;-56
2022/03/26 07:44:59;;;;;;;40.80;32.45;;;32.10;22.10;;;;;;5014028;28;20292;-56
2022/03/26 07:47:25;;;;;;;51.88;31.80;;;33.00;21.40;;;;;;5013645;28;20113;-57
2022/03/26 07:49:50;;;;;;;39.38;31.27;;;34.00;21.00;;;;;;5031192;28;20030;-57
2022/03/26 07:52:17;;;;;;;42.40;35.15;;;35.20;20.50;;;;;;5031398;28;20021;-56
2022/03/26 07:57:28;;;;;;;40.80;29.88;;;37.40;19.20;;;;;;5030746;28;20179;-58
2022/03/26 07:59:54;;;;;;;34.88;27.60;;;38.10;18.90;;;;;;5013786;28;20459;-54
2022/03/26 08:02:19;;;;;;;35.25;27.90;;;38.50;18.60;;;;;;5031246;28;20087;-58
2022/03/26 08:04:45;;;;;;;36.88;27.60;;;39.00;18.40;;;;;;5012891;28;20096;-57
2022/03/26 08:07:12;;;;;;;41.42;28.05;;;39.80;18.30;;;;;;5030645;28;20487;-54
2022/03/26 08:09:38;;;;;;;38.80;29.15;;;40.60;18.10;;;;;;5030886;28;20036;-58
2022/03/26 08:12:04;;;;;;;35.38;29.42;;;41.10;17.80;;;;;;5031465;28;20108;-54
2022/03/26 08:14:30;;;;;;;32.00;27.17;;;40.90;17.60;;;;;;5031064;28;20037;-55
2022/03/26 08:16:56;;;;;;;34.28;27.83;;;41.10;17.70;;;;;;5031664;28;20087;-60
2022/03/26 08:19:22;;;;;;;39.83;27.63;;;40.70;17.80;;;;;;5031380;28;20125;-55
2022/03/26 08:21:48;;;;;;;37.13;31.02;;;40.30;17.70;;;;;;5031886;28;20034;-56
2022/03/26 08:24:14;;;;;;;45.53;29.92;;;40.10;17.60;;;;;;5031247;28;20079;-59
2022/03/26 08:26:40;;;;;;;36.53;29.42;;;39.50;17.50;;;;;;5035046;28;20025;-57
2022/03/26 08:29:06;;;;;;;36.00;28.50;;;38.80;17.60;;;;;;5036174;28;20049;-57
2022/03/26 08:31:32;;;;;;;38.70;29.52;;;39.00;17.70;;;;;;5035179;28;20022;-54
2022/03/26 08:33:59;;;;;;;37.95;28.48;;;39.10;17.80;;;;;;5035487;28;20026;-54
2022/03/26 08:36:25;;;;;;;33.10;28.10;;;39.30;17.70;;;;;;5017216;28;20041;-56
2022/03/26 08:38:52;;;;;;;43.72;31.88;;;39.40;17.60;;;;;;5035312;28;20030;-57
2022/03/26 08:41:22;;;;;;;41.15;29.00;;;38.60;17.50;;;;;;5034824;28;20104;-58
2022/03/26 08:43:50;;;;;;;40.42;30.00;;;37.80;17.50;;;;;;5035087;28;20466;-58
2022/03/26 08:46:18;;;;;;;40.10;28.95;;;36.00;17.70;;;;;;5017749;28;20032;-61
2022/03/26 08:48:44;;;;;;;38.90;29.60;;;33.70;18.20;;;;;;5035373;28;20067;-58
2022/03/26 08:51:09;;;;;;;43.60;29.25;;;31.20;18.80;;;;;;5016726;28;20061;-58
2022/03/26 08:53:35;;;;;;;50.05;30.50;;;29.50;19.60;;;;;;5017162;28;20173;-55
2022/03/26 08:56:01;;;;;;;52.47;32.75;;;28.10;20.20;;;;;;5035131;28;20331;-59
2022/03/26 08:58:27;;;;;;;48.60;30.42;;;26.90;20.80;;;;;;5016860;28;20068;-56
2022/03/26 09:00:53;;;;;;;51.03;31.13;;;26.20;21.10;;;;;;5035070;28;20052;-55
2022/03/26 09:03:21;;;;;;;43.22;30.33;;;25.50;21.50;;;;;;5034721;28;20112;-57
2022/03/26 09:05:52;;;;;;;49.03;31.25;;;24.70;22.00;;;;;;5017493;28;20037;-59
2022/03/26 09:08:18;;;;;;;51.50;32.47;;;23.80;22.60;;;;;;5034968;28;20025;-58
2022/03/26 09:10:44;;;;;;;47.58;31.50;;;23.10;23.20;;;;;;5035591;28;20053;-55
2022/03/26 09:13:10;;;;;;;48.38;30.00;;;22.70;23.60;;;;;;5035521;28;20061;-57
2022/03/26 09:15:37;;;;;;;53.17;30.63;;;22.30;23.60;;;;;;5034823;28;20614;-58
2022/03/26 09:18:03;;;;;;;48.55;31.35;;;21.80;24.10;;;;;;5034906;28;20105;-58
2022/03/26 09:20:30;;;;;;;52.65;31.33;;;21.30;24.50;;;;;;5016778;28;20040;-59
2022/03/26 09:22:56;;;;;;;45.28;30.20;;;21.10;24.90;;;;;;5016615;28;20033;-56
2022/03/26 09:25:22;;;;;;;44.88;29.90;;;20.80;24.90;;;;;;5032067;28;20025;-57
2022/03/26 09:28:06;;;;;;;45.83;31.13;;;20.90;25.10;;;;;;5014329;28;20048;-62
2022/03/26 09:30:32;;;;;;;58.60;31.13;;;20.90;25.30;;;;;;5015200;28;20120;-57
2022/03/26 09:32:59;;;;;;;44.28;30.13;;;20.80;25.20;;;;;;5015498;28;20116;-58
2022/03/26 09:35:26;;;;;;;46.70;31.05;;;20.50;25.40;;;;;;5033416;28;20375;-60
2022/03/26 09:37:52;;;;;;;50.65;31.48;;;20.50;25.50;;;;;;5015300;28;20029;-57
2022/03/26 09:40:22;;;;;;;44.92;30.83;;;20.40;25.70;;;;;;5033599;28;20044;-58
2022/03/26 09:42:49;;;;;;;52.45;31.05;;;20.20;25.80;;;;;;5033908;28;20029;-58
2022/03/26 09:45:15;;;;;;;48.25;29.90;;;20.10;26.00;;;;;;5016176;28;20386;-57
2022/03/26 09:47:41;;;;;;;55.63;31.58;;;19.90;26.00;;;;;;5015406;28;20044;-57
2022/03/26 09:50:09;;;;;;;46.67;30.85;;;19.80;26.20;;;;;;5015798;28;20029;-60
2022/03/26 09:52:36;;;;;;;48.50;28.60;;;19.90;26.20;;;;;;5031943;28;20033;-57
2022/03/26 09:55:03;;;;;;;48.42;31.48;;;19.80;26.10;;;;;;5033542;28;20112;-58
2022/03/26 09:57:29;;;;;;;47.28;29.67;;;19.90;26.20;;;;;;5014689;28;20051;-54
2022/03/26 09:59:56;;;;;;;42.45;29.15;;;19.90;26.30;;;;;;5033064;28;20072;-58
2022/03/26 10:02:22;;;;;;;49.63;30.40;;;19.70;26.40;;;;;;5014039;28;20052;-57
2022/03/26 10:04:47;;;;;;;48.33;29.05;;;19.60;26.50;;;;;;5033080;28;20421;-58
2022/03/26 10:07:13;;;;;;;39.45;27.73;;;19.70;26.60;;;;;;5032981;28;20501;-57
2022/03/26 10:09:44;;;;;;;51.38;29.00;;;19.60;26.60;;;;;;5032485;28;20383;-55
2022/03/26 10:12:12;;;;;;;52.67;29.13;;;19.60;26.60;;;;;;5033039;28;20121;-59
2022/03/26 10:14:52;;;;;;;43.63;27.23;;;19.60;27.10;;;;;;5032527;28;20325;-55
2022/03/26 10:17:19;;;;;;;59.25;28.50;;;19.80;26.50;;;;;;5032847;28;20099;-57
2022/03/26 10:19:52;;;;;;;58.33;30.35;;;20.00;26.50;;;;;;5032685;28;20037;-53
2022/03/26 10:22:43;;;;;;;61.58;29.20;;;20.00;26.40;;;;;;5032711;28;20033;-58
2022/03/26 10:25:13;;;;;;;49.88;28.90;;;20.00;26.40;;;;;;5031707;28;20084;-55
2022/03/26 10:27:55;;;;;;;53.95;30.15;;;19.70;26.50;;;;;;5031697;28;20213;-57
2022/03/26 10:33:23;;;;;;;39.65;28.73;;;19.60;26.60;;;;;;4981891;28;20402;-58
2022/03/26 10:36:00;;;;;;;44.40;28.58;;;19.70;26.50;;;;;;5015013;28;20473;-53
2022/03/26 10:38:42;;;;;;;45.03;29.17;;;19.80;26.50;;;;;;5031872;28;20037;-57
2022/03/26 10:41:10;;;;;;;48.80;29.02;;;19.90;26.40;;;;;;5014457;28;20561;-60
2022/03/26 10:43:41;;;;;;;47.17;28.98;;;19.90;26.40;;;;;;5031678;28;20021;-53
2022/03/26 10:46:07;;;;;;;44.05;28.33;;;19.80;26.50;;;;;;5014142;28;20026;-55
2022/03/26 10:48:37;;;;;;;50.95;28.30;;;19.90;26.50;;;;;;5030696;28;20022;-59
2022/03/26 10:51:11;;;;;;;44.45;27.23;;;20.10;26.40;;;;;;5014325;28;20047;-54
2022/03/26 10:53:39;;;;;;;42.10;28.23;;;20.20;26.30;;;;;;5031690;28;20030;-56
2022/03/26 10:56:10;;;;;;;43.80;29.20;;;20.20;26.30;;;;;;5031921;28;20080;-60
2022/03/26 10:58:38;;;;;;;43.05;27.75;;;20.30;26.20;;;;;;5031720;28;20034;-53
2022/03/26 11:01:04;;;;;;;46.08;27.42;;;20.30;26.30;;;;;;5014422;28;20417;-55
2022/03/26 11:03:30;;;;;;;45.10;27.95;;;20.30;26.30;;;;;;5012740;28;20030;-55
2022/03/26 11:05:57;;;;;;;47.22;29.48;;;20.30;26.50;;;;;;5014731;28;20462;-60
2022/03/26 11:08:24;;;;;;;49.95;29.40;;;20.30;26.50;;;;;;5031822;28;20026;-56
2022/03/26 11:10:55;;;;;;;50.15;29.17;;;20.40;26.40;;;;;;5014514;28;20113;-56
2022/03/26 11:13:23;;;;;;;53.42;28.85;;;20.40;26.40;;;;;;5031673;28;20152;-66
2022/03/26 11:15:59;;;;;;;45.38;30.00;;;20.30;26.40;;;;;;5015512;28;20029;-56
2022/03/26 11:18:44;;;;;;;43.33;26.95;;;20.40;26.50;;;;;;5032877;28;20036;-58
2022/03/26 11:21:45;;;;;;;43.75;30.20;;;20.30;26.40;;;;;;5032333;28;20387;-55
2022/03/26 11:24:26;;;;;;;48.58;29.55;;;20.40;26.20;;;;;;5013772;28;20045;-56
2022/03/26 11:27:10;;;;;;;44.50;27.15;;;20.40;26.20;;;;;;5031579;28;20103;-59
2022/03/26 11:29:54;;;;;;;;;;;20.50;26.20;;;;;;5014352;28;20029;-58
2022/03/26 11:32:27;;;;;;;42.90;27.30;;;20.50;26.10;;;;;;5032534;28;19905;-57
2022/03/26 11:35:02;;;;;;;40.63;27.58;;;20.60;25.80;;;;;;5031918;28;20060;-58
2022/03/26 11:37:28;;;;;;;48.05;31.70;;;20.50;25.90;;;;;;5030864;28;20483;-55
2022/03/26 11:39:58;;;;;;;52.42;37.78;;;20.60;26.00;;;;;;5013399;28;20037;-62
2022/03/26 11:42:38;;;;;;;48.40;34.00;;;20.60;26.00;;;;;;5029368;28;20034;-59
2022/03/26 11:51:23;;;;;;;39.80;26.30;;;20.70;25.60;;;;;;5030804;28;20108;-59
2022/03/26 11:53:56;;;;;;;40.00;28.95;;;20.60;25.70;;;;;;5013698;28;20021;-58
2022/03/26 11:56:25;;;;;;;41.28;27.20;;;20.40;25.80;;;;;;5031648;28;20048;-62
2022/03/26 11:59:14;;;;;;;37.10;26.60;;;20.40;25.90;;;;;;5031952;28;20082;-61
2022/03/26 12:01:42;;;;;;;34.67;24.15;;;20.70;25.80;;;;;;5025040;28;20112;-53
2022/03/26 12:04:09;;;;;;;34.17;24.40;;;20.90;25.30;;;;;;5014210;28;20367;-60
2022/03/26 12:06:43;;;;;;;38.15;26.35;;;21.00;25.10;;;;;;5014124;28;20026;-57
2022/03/26 12:09:27;;;;;;;35.47;25.52;;;21.10;24.90;;;;;;5014118;28;20022;-60
2022/03/26 12:12:11;;;;;;;36.72;27.02;;;21.20;24.90;;;;;;5032474;28;20128;-55
2022/03/26 12:15:02;;;;;;;35.05;25.58;;;21.40;24.70;;;;;;5032635;28;20025;-60
2022/03/26 12:17:45;;;;;;;34.95;23.08;;;21.50;24.50;;;;;;5031359;28;20040;-60
2022/03/26 12:20:26;;;;;;;40.47;23.88;;;21.40;24.10;;;;;;5032289;28;20029;-56
2022/03/26 12:23:11;;;;;;;33.90;23.60;;;21.30;23.90;;;;;;5032261;28;20036;-59
2022/03/26 12:25:50;;;;;;;30.15;21.85;;;21.30;24.20;;;;;;5032228;28;20104;-57
2022/03/26 12:28:24;;;;;;;30.58;23.25;;;21.30;23.90;;;;;;5015414;28;20117;-59
2022/03/26 12:30:53;;;;;;;34.22;23.45;;;21.30;23.20;;;;;;5014861;28;20408;-57
2022/03/26 12:33:21;;;;;;;50.35;24.80;;;21.30;23.40;;;;;;5014911;28;20485;-58
2022/03/26 12:38:34;;;;;;;35.63;25.20;;;21.40;23.30;;;;;;5031286;28;20032;-61
2022/03/26 12:41:03;;;;;;;33.17;22.75;;;21.50;23.00;;;;;;5031575;28;20029;-63
2022/03/26 12:43:29;;;;;;;34.17;23.27;;;21.60;23.20;;;;;;5030889;28;20021;-58
2022/03/26 12:45:57;;;;;;;31.05;22.48;;;21.70;23.20;;;;;;5031442;28;20075;-59
2022/03/26 12:48:28;;;;;;;35.80;22.50;;;21.70;23.20;;;;;;5031120;28;20148;-63